createdAt,value
2023-04-16T00:00:08.340Z,51.20
2023-04-16T00:01:08.325Z,50.40
2023-04-16T00:02:08.428Z,52.90
2023-04-16T00:03:08.547Z,52.40
2023-04-16T00:04:08.667Z,53.80
2023-04-16T00:05:08.360Z,53.20
2023-04-16T00:06:08.301Z,55.30
2023-04-16T00:07:08.291Z,56.20
2023-04-16T00:08:08.288Z,50.70
2023-04-16T00:09:08.576Z,56.80
2023-04-16T00:10:08.293Z,53.70
2023-04-16T00:11:08.264Z,54.00
2023-04-16T00:12:08.260Z,53.20
2023-04-16T00:13:08.260Z,57.80
2023-04-16T00:14:08.265Z,54.90
2023-04-16T00:15:08.247Z,54.00
2023-04-16T00:16:08.240Z,56.40
2023-04-16T00:17:08.351Z,59.70
2023-04-16T00:18:08.236Z,57.10
2023-04-16T00:19:08.445Z,57.80
2023-04-16T00:20:08.217Z,56.50
2023-04-16T00:21:08.216Z,57.20
2023-04-16T00:22:08.208Z,60.80
2023-04-16T00:23:08.207Z,60.50
2023-04-16T00:24:08.195Z,59.30
2023-04-16T00:25:08.194Z,59.10
2023-04-16T00:26:08.212Z,58.90
2023-04-16T00:27:08.192Z,59.60
2023-04-16T00:28:09.991Z,59.20
2023-04-16T00:29:08.677Z,57.90
2023-04-16T00:30:08.199Z,59.50
2023-04-16T00:31:08.196Z,65.50
2023-04-16T00:32:08.163Z,59.50
2023-04-16T00:33:08.155Z,58.00
2023-04-16T00:34:08.142Z,58.00
2023-04-16T00:35:08.149Z,62.20
2023-04-16T00:36:08.632Z,58.40
2023-04-16T00:37:08.126Z,59.60
2023-04-16T00:38:08.134Z,58.60
2023-04-16T00:39:08.490Z,61.70
2023-04-16T00:40:08.110Z,58.90
2023-04-16T00:41:08.104Z,60.20
2023-04-16T00:42:08.136Z,63.60
2023-04-16T00:43:08.101Z,66.00
2023-04-16T00:44:08.088Z,66.50
2023-04-16T00:45:08.086Z,65.80
2023-04-16T00:46:08.097Z,65.10
2023-04-16T00:47:08.083Z,64.00
2023-04-16T00:48:08.069Z,63.80
2023-04-16T00:49:08.240Z,66.20
2023-04-16T00:50:08.051Z,68.00
2023-04-16T00:51:08.050Z,61.80
2023-04-16T00:52:08.050Z,63.50
2023-04-16T00:53:08.054Z,62.00
2023-04-16T00:54:08.039Z,62.50
2023-04-16T00:55:08.030Z,62.10
2023-04-16T00:56:08.022Z,60.20
2023-04-16T00:57:08.020Z,62.90
2023-04-16T00:58:08.040Z,63.90
2023-04-16T00:59:08.377Z,67.20
2023-04-16T01:00:08.001Z,63.10
2023-04-16T01:01:08.043Z,61.50
2023-04-16T01:02:08.106Z,62.40
2023-04-16T01:03:08.182Z,62.70
2023-04-16T01:04:08.082Z,61.70
2023-04-16T01:05:07.978Z,65.00
2023-04-16T01:06:07.970Z,62.40
2023-04-16T01:07:07.991Z,62.90
2023-04-16T01:08:07.965Z,64.80
2023-04-16T01:09:08.332Z,62.10
2023-04-16T01:10:07.951Z,67.70
2023-04-16T01:11:07.962Z,65.20
2023-04-16T01:12:07.985Z,63.60
2023-04-16T01:13:07.947Z,64.90
2023-04-16T01:14:07.977Z,63.40
2023-04-16T01:15:07.929Z,64.40
2023-04-16T01:16:08.158Z,66.40
2023-04-16T01:17:07.951Z,65.30
2023-04-16T01:18:07.907Z,66.80
2023-04-16T01:19:08.234Z,63.00
2023-04-16T01:20:07.907Z,66.20
2023-04-16T01:21:07.905Z,66.00
2023-04-16T01:22:07.902Z,61.40
2023-04-16T01:23:07.888Z,65.10
2023-04-16T01:24:07.887Z,63.90
2023-04-16T01:25:07.888Z,64.40
2023-04-16T01:26:07.869Z,62.80
2023-04-16T01:27:07.883Z,61.30
2023-04-16T01:28:07.864Z,61.20
2023-04-16T01:29:08.080Z,62.80
2023-04-16T01:30:07.870Z,68.50
2023-04-16T01:31:07.925Z,65.50
2023-04-16T01:32:07.834Z,64.90
2023-04-16T01:33:07.834Z,62.90
2023-04-16T01:34:07.839Z,63.00
2023-04-16T01:35:07.822Z,64.60
2023-04-16T01:36:07.822Z,64.80
2023-04-16T01:37:07.811Z,67.00
2023-04-16T01:38:07.807Z,63.50
2023-04-16T01:39:08.092Z,64.30
2023-04-16T01:40:07.796Z,66.50
2023-04-16T01:41:08.241Z,65.10
2023-04-16T01:42:07.789Z,60.80
2023-04-16T01:43:07.783Z,63.40
2023-04-16T01:44:07.782Z,59.90
2023-04-16T01:45:07.765Z,59.70
2023-04-16T01:46:07.831Z,59.60
2023-04-16T01:47:07.759Z,60.90
2023-04-16T01:48:07.758Z,59.00
2023-04-16T01:49:07.886Z,58.50
2023-04-16T01:50:07.746Z,56.20
2023-04-16T01:51:07.739Z,57.20
2023-04-16T01:52:07.737Z,58.70
2023-04-16T01:53:07.730Z,58.50
2023-04-16T01:54:07.722Z,57.80
2023-04-16T01:55:07.719Z,58.10
2023-04-16T01:56:07.716Z,59.40
2023-04-16T01:57:07.730Z,60.00
2023-04-16T01:58:07.711Z,57.10
2023-04-16T01:59:08.125Z,57.90
2023-04-16T02:00:07.687Z,60.90
2023-04-16T02:01:07.743Z,60.20
2023-04-16T02:02:07.811Z,61.00
2023-04-16T02:03:07.920Z,61.00
2023-04-16T02:04:07.696Z,57.20
2023-04-16T02:05:07.678Z,58.30
2023-04-16T02:06:07.660Z,56.60
2023-04-16T02:07:07.655Z,57.30
2023-04-16T02:08:07.673Z,56.10
2023-04-16T02:09:07.975Z,58.80
2023-04-16T02:10:07.639Z,60.70
2023-04-16T02:11:07.637Z,62.60
2023-04-16T02:12:07.714Z,59.30
2023-04-16T02:13:07.621Z,62.50
2023-04-16T02:14:07.624Z,60.80
2023-04-16T02:15:07.633Z,61.80
2023-04-16T02:16:07.657Z,61.90
2023-04-16T02:17:07.646Z,61.90
2023-04-16T02:18:07.716Z,63.30
2023-04-16T02:19:07.736Z,62.50
2023-04-16T02:20:07.585Z,63.10
2023-04-16T02:21:07.576Z,61.00
2023-04-16T02:22:07.729Z,62.20
2023-04-16T02:23:07.563Z,60.40
2023-04-16T02:24:07.558Z,68.40
2023-04-16T02:25:07.556Z,68.70
2023-04-16T02:26:07.548Z,60.60
2023-04-16T02:27:07.582Z,67.50
2023-04-16T02:28:07.538Z,63.50
2023-04-16T02:29:07.786Z,65.20
2023-04-16T02:30:07.528Z,61.10
2023-04-16T02:31:07.518Z,63.60
2023-04-16T02:32:07.591Z,61.90
2023-04-16T02:33:07.540Z,63.90
2023-04-16T02:34:07.523Z,65.40
2023-04-16T02:35:07.496Z,65.70
2023-04-16T02:36:07.491Z,63.20
2023-04-16T02:37:07.484Z,69.10
2023-04-16T02:38:07.480Z,66.60
2023-04-16T02:39:07.632Z,67.10
2023-04-16T02:40:07.471Z,65.00
2023-04-16T02:41:07.461Z,70.90
2023-04-16T02:42:07.465Z,67.40
2023-04-16T02:43:07.451Z,64.40
2023-04-16T02:44:07.447Z,67.00
2023-04-16T02:45:07.443Z,76.80
2023-04-16T02:46:07.805Z,75.40
2023-04-16T02:47:07.429Z,72.20
2023-04-16T02:48:07.430Z,69.10
2023-04-16T02:49:07.521Z,71.20
2023-04-16T02:50:07.444Z,69.90
2023-04-16T02:51:07.412Z,69.90
2023-04-16T02:52:07.405Z,72.20
2023-04-16T02:53:07.403Z,73.10
2023-04-16T02:54:07.397Z,72.90
2023-04-16T02:55:07.394Z,69.90
2023-04-16T02:56:07.389Z,76.50
2023-04-16T02:57:07.377Z,75.80
2023-04-16T02:58:07.382Z,74.00
2023-04-16T02:59:07.664Z,77.30
2023-04-16T03:00:07.369Z,73.70
2023-04-16T03:01:07.386Z,72.20
2023-04-16T03:02:07.366Z,75.80
2023-04-16T03:03:07.372Z,75.20
2023-04-16T03:04:07.364Z,76.10
2023-04-16T03:05:07.332Z,77.60
2023-04-16T03:06:07.367Z,77.20
2023-04-16T03:07:07.340Z,74.50
2023-04-16T03:08:07.324Z,79.80
2023-04-16T03:09:07.772Z,75.40
2023-04-16T03:10:07.304Z,77.00
2023-04-16T03:11:07.301Z,79.40
2023-04-16T03:12:07.302Z,79.60
2023-04-16T03:13:07.296Z,87.60
2023-04-16T03:14:07.288Z,81.40
2023-04-16T03:15:07.308Z,86.00
2023-04-16T03:16:07.334Z,82.10
2023-04-16T03:17:07.269Z,84.50
2023-04-16T03:18:07.269Z,81.40
2023-04-16T03:19:07.428Z,80.30
2023-04-16T03:20:07.257Z,82.90
2023-04-16T03:21:07.249Z,86.70
2023-04-16T03:22:07.269Z,83.80
2023-04-16T03:23:07.252Z,87.90
2023-04-16T03:24:07.236Z,86.00
2023-04-16T03:25:07.222Z,90.10
2023-04-16T03:26:07.227Z,84.50
2023-04-16T03:27:07.223Z,92.10
2023-04-16T03:28:07.214Z,86.90
2023-04-16T03:29:07.390Z,81.00
2023-04-16T03:30:07.204Z,85.00
2023-04-16T03:31:07.214Z,88.40
2023-04-16T03:32:07.191Z,85.70
2023-04-16T03:33:07.185Z,85.40
2023-04-16T03:34:07.206Z,91.40
2023-04-16T03:35:07.171Z,91.20
2023-04-16T03:36:07.170Z,86.50
2023-04-16T03:37:07.162Z,88.30
2023-04-16T03:38:07.171Z,92.20
2023-04-16T03:39:07.308Z,89.30
2023-04-16T03:40:07.174Z,94.40
2023-04-16T03:41:07.143Z,88.10
2023-04-16T03:42:07.169Z,94.50
2023-04-16T03:43:07.132Z,89.00
2023-04-16T03:44:07.129Z,88.30
2023-04-16T03:45:07.117Z,87.00
2023-04-16T03:46:07.542Z,86.10
2023-04-16T03:47:07.108Z,90.10
2023-04-16T03:48:07.108Z,91.30
2023-04-16T03:49:07.314Z,80.30
2023-04-16T03:50:07.106Z,89.50
2023-04-16T03:51:07.112Z,86.30
2023-04-16T03:52:07.097Z,83.60
2023-04-16T03:53:07.078Z,84.40
2023-04-16T03:54:07.169Z,81.30
2023-04-16T03:55:07.086Z,83.70
2023-04-16T03:56:07.075Z,82.60
2023-04-16T03:57:07.068Z,80.80
2023-04-16T03:58:07.058Z,81.00
2023-04-16T03:59:07.249Z,81.90
2023-04-16T04:00:07.058Z,85.40
2023-04-16T04:01:07.067Z,81.50
2023-04-16T04:02:07.173Z,81.90
2023-04-16T04:03:07.197Z,78.20
2023-04-16T04:04:07.399Z,78.80
2023-04-16T04:05:07.070Z,78.90
2023-04-16T04:06:07.010Z,79.10
2023-04-16T04:07:07.014Z,82.00
2023-04-16T04:08:07.011Z,85.40
2023-04-16T04:09:07.103Z,80.10
2023-04-16T04:10:07.020Z,82.00
2023-04-16T04:11:06.984Z,87.50
2023-04-16T04:12:06.980Z,80.70
2023-04-16T04:13:06.980Z,80.20
2023-04-16T04:14:06.974Z,80.50
2023-04-16T04:15:06.965Z,79.20
2023-04-16T04:16:07.038Z,78.70
2023-04-16T04:17:06.958Z,78.50
2023-04-16T04:18:06.966Z,81.20
2023-04-16T04:19:07.019Z,77.20
2023-04-16T04:20:06.942Z,80.20
2023-04-16T04:21:06.943Z,79.20
2023-04-16T04:22:06.931Z,77.10
2023-04-16T04:23:06.927Z,79.20
2023-04-16T04:24:06.922Z,75.60
2023-04-16T04:25:06.919Z,78.20
2023-04-16T04:26:07.017Z,74.90
2023-04-16T04:27:06.901Z,76.60
2023-04-16T04:28:06.900Z,74.20
2023-04-16T04:29:06.992Z,74.90
2023-04-16T04:30:06.894Z,78.80
2023-04-16T04:31:06.882Z,74.50
2023-04-16T04:32:06.950Z,75.10
2023-04-16T04:33:06.978Z,74.60
2023-04-16T04:34:06.867Z,74.50
2023-04-16T04:35:06.866Z,77.20
2023-04-16T04:36:06.862Z,78.20
2023-04-16T04:37:06.864Z,78.20
2023-04-16T04:38:06.853Z,74.60
2023-04-16T04:39:07.087Z,75.60
2023-04-16T04:40:06.841Z,76.40
2023-04-16T04:41:06.831Z,75.50
2023-04-16T04:42:06.845Z,73.00
2023-04-16T04:43:06.833Z,75.10
2023-04-16T04:44:06.817Z,76.30
2023-04-16T04:45:06.826Z,73.20
2023-04-16T04:46:06.830Z,76.60
2023-04-16T04:47:06.802Z,73.70
2023-04-16T04:48:06.806Z,74.40
2023-04-16T04:49:06.801Z,74.10
2023-04-16T04:50:06.791Z,77.40
2023-04-16T04:51:06.787Z,79.50
2023-04-16T04:52:06.776Z,78.00
2023-04-16T04:53:06.770Z,74.70
2023-04-16T04:54:06.779Z,77.20
2023-04-16T04:55:06.764Z,79.00
2023-04-16T04:57:06.750Z,77.10
2023-04-16T04:58:06.772Z,76.60
2023-04-16T04:59:06.742Z,79.50
2023-04-16T05:00:06.735Z,79.80
2023-04-16T05:01:06.810Z,79.10
2023-04-16T05:02:06.742Z,75.30
2023-04-16T05:03:06.778Z,76.70
2023-04-16T05:04:06.775Z,75.50
2023-04-16T05:05:06.744Z,76.50
2023-04-16T05:06:06.707Z,74.90
2023-04-16T05:07:06.706Z,77.10
2023-04-16T05:08:06.704Z,79.80
2023-04-16T05:09:06.700Z,77.00
2023-04-16T05:10:06.688Z,76.90
2023-04-16T05:11:06.681Z,77.50
2023-04-16T05:12:06.702Z,82.30
2023-04-16T05:13:06.682Z,76.50
2023-04-16T05:14:06.708Z,83.90
2023-04-16T05:15:06.667Z,82.20
2023-04-16T05:16:06.669Z,79.70
2023-04-16T05:17:06.679Z,82.90
2023-04-16T05:18:06.652Z,78.60
2023-04-16T05:19:06.706Z,79.50
2023-04-16T05:20:06.639Z,78.40
2023-04-16T05:21:06.635Z,77.80
2023-04-16T05:22:06.630Z,78.70
2023-04-16T05:23:06.624Z,80.30
2023-04-16T05:24:06.623Z,80.30
2023-04-16T05:25:06.626Z,80.70
2023-04-16T05:26:06.610Z,82.40
2023-04-16T05:27:06.626Z,81.00
2023-04-16T05:28:06.617Z,76.30
2023-04-16T05:29:06.595Z,78.00
2023-04-16T05:30:06.624Z,77.70
2023-04-16T05:31:06.593Z,78.20
2023-04-16T05:32:06.586Z,75.10
2023-04-16T05:33:06.577Z,76.70
2023-04-16T05:34:06.581Z,74.70
2023-04-16T05:35:06.565Z,74.10
2023-04-16T05:36:06.562Z,76.50
2023-04-16T05:37:06.565Z,76.90
2023-04-16T05:38:06.555Z,71.80
2023-04-16T05:39:06.621Z,75.70
2023-04-16T05:40:06.542Z,72.70
2023-04-16T05:41:06.536Z,68.20
2023-04-16T05:42:06.542Z,67.20
2023-04-16T05:43:06.522Z,72.70
2023-04-16T05:44:06.520Z,69.40
2023-04-16T05:45:06.512Z,66.50
2023-04-16T05:46:06.581Z,66.30
2023-04-16T05:47:06.505Z,68.80
2023-04-16T05:48:06.507Z,66.50
2023-04-16T05:49:06.505Z,65.30
2023-04-16T05:50:06.490Z,65.40
2023-04-16T05:51:06.682Z,67.90
2023-04-16T05:52:06.479Z,68.00
2023-04-16T05:53:06.487Z,63.70
2023-04-16T05:54:06.463Z,64.10
2023-04-16T05:55:06.462Z,65.40
2023-04-16T05:56:06.463Z,63.60
2023-04-16T05:57:06.452Z,65.10
2023-04-16T05:58:06.442Z,61.80
2023-04-16T05:59:06.460Z,60.20
2023-04-16T06:00:06.442Z,59.30
2023-04-16T06:01:06.446Z,61.00
2023-04-16T06:02:06.483Z,57.30
2023-04-16T06:03:06.722Z,58.10
2023-04-16T06:04:06.601Z,59.30
2023-04-16T06:05:06.441Z,59.60
2023-04-16T06:06:06.406Z,59.00
2023-04-16T06:07:06.396Z,55.20
2023-04-16T06:08:06.404Z,52.20
2023-04-16T06:09:06.394Z,53.80
2023-04-16T06:10:06.390Z,53.10
2023-04-16T06:11:06.381Z,54.40
2023-04-16T06:12:06.376Z,53.80
2023-04-16T06:13:06.377Z,53.60
2023-04-16T06:14:06.371Z,52.00
2023-04-16T06:15:06.382Z,50.00
2023-04-16T06:16:06.381Z,52.20
2023-04-16T06:17:06.351Z,52.90
2023-04-16T06:18:06.393Z,49.70
2023-04-16T06:19:06.353Z,46.70
2023-04-16T06:20:06.334Z,51.90
2023-04-16T06:21:06.332Z,46.90
2023-04-16T06:22:06.342Z,48.30
2023-04-16T06:23:06.318Z,48.70
2023-04-16T06:24:06.321Z,48.70
2023-04-16T06:25:06.320Z,48.50
2023-04-16T06:26:06.305Z,48.20
2023-04-16T06:27:06.306Z,49.30
2023-04-16T06:28:06.291Z,48.00
2023-04-16T06:29:06.287Z,50.20
2023-04-16T06:30:06.286Z,50.30
2023-04-16T06:31:06.314Z,49.40
2023-04-16T06:32:06.277Z,48.90
2023-04-16T06:33:06.276Z,48.20
2023-04-16T06:34:06.278Z,50.00
2023-04-16T06:35:06.258Z,50.50
2023-04-16T06:36:06.258Z,51.10
2023-04-16T06:37:07.782Z,53.70
2023-04-16T06:38:06.239Z,54.20
2023-04-16T06:39:06.261Z,51.20
2023-04-16T06:40:06.229Z,48.70
2023-04-16T06:41:06.230Z,48.70
2023-04-16T06:42:06.261Z,51.00
2023-04-16T06:43:06.220Z,51.40
2023-04-16T06:44:06.223Z,50.40
2023-04-16T06:45:06.208Z,50.70
2023-04-16T06:46:06.208Z,52.50
2023-04-16T06:47:06.269Z,53.40
2023-04-16T06:48:06.266Z,51.80
2023-04-16T06:49:06.184Z,54.00
2023-04-16T06:50:06.201Z,53.80
2023-04-16T06:51:06.526Z,52.30
2023-04-16T06:52:06.215Z,54.30
2023-04-16T06:53:06.162Z,52.60
2023-04-16T06:54:06.159Z,54.20
2023-04-16T06:55:06.177Z,51.10
2023-04-16T06:56:06.146Z,55.00
2023-04-16T06:57:06.149Z,55.40
2023-04-16T06:58:06.171Z,56.30
2023-04-16T06:59:06.135Z,55.40
2023-04-16T07:00:06.128Z,55.90
2023-04-16T07:01:06.142Z,53.50
2023-04-16T07:02:06.202Z,54.60
2023-04-16T07:03:06.272Z,55.90
2023-04-16T07:04:06.134Z,52.60
2023-04-16T07:05:06.121Z,51.30
2023-04-16T07:06:06.109Z,50.70
2023-04-16T07:07:06.093Z,53.30
2023-04-16T07:08:06.084Z,50.80
2023-04-16T07:09:06.088Z,47.50
2023-04-16T07:10:06.072Z,48.90
2023-04-16T07:11:06.072Z,49.80
2023-04-16T07:12:06.074Z,48.30
2023-04-16T07:13:06.058Z,46.70
2023-04-16T07:14:06.054Z,49.30
2023-04-16T07:15:06.067Z,47.70
2023-04-16T07:16:06.086Z,43.80
2023-04-16T07:17:06.064Z,46.20
2023-04-16T07:18:06.045Z,45.20
2023-04-16T07:19:06.037Z,44.10
2023-04-16T07:20:06.024Z,44.20
2023-04-16T07:21:06.013Z,41.10
2023-04-16T07:22:06.034Z,43.20
2023-04-16T07:23:06.007Z,41.00
2023-04-16T07:24:06.006Z,42.00
2023-04-16T07:25:05.997Z,42.20
2023-04-16T07:26:06.000Z,40.20
2023-04-16T07:27:05.987Z,39.50
2023-04-16T07:28:05.994Z,37.90
2023-04-16T07:29:05.987Z,39.10
2023-04-16T07:30:05.970Z,38.50
2023-04-16T07:31:05.968Z,39.50
2023-04-16T07:32:06.001Z,38.90
2023-04-16T07:33:05.999Z,39.60
2023-04-16T07:34:05.951Z,39.00
2023-04-16T07:35:05.950Z,36.70
2023-04-16T07:36:05.944Z,37.40
2023-04-16T07:37:05.938Z,35.80
2023-04-16T07:38:05.974Z,36.60
2023-04-16T07:39:05.932Z,36.20
2023-04-16T07:40:05.918Z,37.60
2023-04-16T07:41:05.920Z,36.90
2023-04-16T07:42:05.908Z,37.50
2023-04-16T07:43:05.910Z,34.80
2023-04-16T07:44:05.901Z,38.20
2023-04-16T07:45:05.900Z,37.60
2023-04-16T07:46:05.969Z,39.40
2023-04-16T07:47:06.049Z,39.00
2023-04-16T07:48:05.880Z,36.20
2023-04-16T07:49:05.871Z,38.70
2023-04-16T07:50:05.880Z,36.50
2023-04-16T07:51:05.878Z,36.50
2023-04-16T07:52:05.866Z,38.10
2023-04-16T07:53:05.892Z,36.60
2023-04-16T07:54:05.874Z,35.80
2023-04-16T07:55:05.855Z,37.90
2023-04-16T07:56:06.048Z,38.70
2023-04-16T07:57:05.839Z,37.10
2023-04-16T07:58:05.828Z,36.50
2023-04-16T07:59:21.004Z,36.20
2023-04-16T08:00:05.818Z,39.00
2023-04-16T08:01:05.819Z,37.10
2023-04-16T08:02:05.902Z,38.20
2023-04-16T08:03:06.043Z,37.90
2023-04-16T08:04:05.910Z,38.40
2023-04-16T08:05:05.882Z,35.60
2023-04-16T08:06:05.793Z,37.00
2023-04-16T08:07:05.786Z,39.00
2023-04-16T08:08:05.780Z,36.80
2023-04-16T08:09:05.784Z,38.10
2023-04-16T08:10:05.798Z,37.90
2023-04-16T08:11:05.780Z,38.90
2023-04-16T08:12:05.759Z,38.70
2023-04-16T08:13:05.754Z,36.10
2023-04-16T08:14:05.749Z,37.40
2023-04-16T08:15:05.747Z,39.70
2023-04-16T08:16:05.796Z,37.40
2023-04-16T08:17:05.752Z,38.50
2023-04-16T08:18:05.891Z,37.30
2023-04-16T08:19:05.804Z,36.40
2023-04-16T08:20:05.821Z,38.60
2023-04-16T08:21:05.774Z,37.40
2023-04-16T08:22:05.717Z,36.20
2023-04-16T08:23:05.794Z,39.20
2023-04-16T08:24:05.708Z,37.30
2023-04-16T08:25:05.713Z,37.20
2023-04-16T08:26:05.712Z,36.70
2023-04-16T08:27:17.895Z,37.80
2023-04-16T08:28:05.692Z,36.20
2023-04-16T08:29:05.680Z,36.70
2023-04-16T08:30:05.674Z,37.20
2023-04-16T08:31:05.764Z,38.50
2023-04-16T08:32:05.663Z,39.00
2023-04-16T08:33:05.722Z,36.10
2023-04-16T08:34:05.659Z,38.30
2023-04-16T08:35:05.651Z,37.70
2023-04-16T08:36:05.664Z,37.50
2023-04-16T08:37:05.678Z,34.70
2023-04-16T08:38:05.637Z,35.90
2023-04-16T08:39:05.632Z,35.40
2023-04-16T08:40:05.629Z,35.70
2023-04-16T08:41:05.628Z,34.90
2023-04-16T08:42:05.699Z,34.40
2023-04-16T08:43:05.606Z,35.10
2023-04-16T08:44:05.606Z,36.20
2023-04-16T08:45:05.600Z,35.20
2023-04-16T08:46:05.671Z,35.20
2023-04-16T08:47:05.656Z,34.20
2023-04-16T08:48:05.584Z,35.50
2023-04-16T08:49:05.579Z,33.00
2023-04-16T08:50:05.574Z,32.00
2023-04-16T08:51:05.593Z,34.20
2023-04-16T08:52:05.618Z,33.20
2023-04-16T08:53:05.572Z,34.10
2023-04-16T08:54:05.562Z,32.50
2023-04-16T08:55:05.549Z,34.00
2023-04-16T08:56:05.800Z,32.00
2023-04-16T08:57:05.536Z,33.00
2023-04-16T08:58:05.556Z,33.70
2023-04-16T08:59:05.538Z,32.10
2023-04-16T09:00:05.540Z,32.30
2023-04-16T09:01:05.541Z,33.50
2023-04-16T09:02:05.603Z,32.60
2023-04-16T09:03:05.573Z,32.50
2023-04-16T09:04:05.827Z,32.60
2023-04-16T09:05:05.502Z,32.60
2023-04-16T09:06:05.511Z,33.10
2023-04-16T09:07:05.488Z,33.10
2023-04-16T09:08:05.487Z,32.20
2023-04-16T09:09:05.485Z,31.00
2023-04-16T09:10:05.478Z,31.70
2023-04-16T09:11:05.476Z,32.40
2023-04-16T09:12:05.468Z,32.70
2023-04-16T09:13:05.466Z,30.90
2023-04-16T09:14:05.473Z,32.00
2023-04-16T09:15:05.457Z,31.00
2023-04-16T09:16:05.467Z,31.20
2023-04-16T09:17:05.440Z,32.10
2023-04-16T09:18:05.438Z,30.80
2023-04-16T09:19:05.438Z,32.70
2023-04-16T09:20:05.423Z,31.20
2023-04-16T09:21:05.422Z,31.10
2023-04-16T09:22:05.421Z,30.90
2023-04-16T09:23:05.410Z,31.40
2023-04-16T09:24:05.422Z,29.60
2023-04-16T09:25:05.411Z,31.70
2023-04-16T09:26:05.399Z,31.00
2023-04-16T09:27:05.396Z,30.40
2023-04-16T09:28:05.396Z,31.00
2023-04-16T09:29:05.388Z,30.00
2023-04-16T09:30:05.402Z,30.40
2023-04-16T09:31:05.375Z,31.30
2023-04-16T09:32:05.489Z,32.40
2023-04-16T09:33:05.360Z,33.00
2023-04-16T09:34:05.464Z,30.90
2023-04-16T09:35:05.356Z,30.70
2023-04-16T09:36:05.372Z,30.10
2023-04-16T09:37:05.369Z,31.40
2023-04-16T09:38:05.360Z,31.60
2023-04-16T09:39:05.366Z,30.80
2023-04-16T09:40:05.327Z,32.70
2023-04-16T09:41:05.324Z,30.30
2023-04-16T09:42:05.319Z,31.60
2023-04-16T09:43:05.331Z,30.60
2023-04-16T09:44:05.473Z,31.20
2023-04-16T09:45:06.331Z,30.50
2023-04-16T09:46:08.187Z,31.60
2023-04-16T09:47:05.325Z,30.90
2023-04-16T09:48:05.340Z,30.30
2023-04-16T09:49:05.288Z,31.10
2023-04-16T09:50:05.283Z,30.30
2023-04-16T09:51:05.284Z,31.10
2023-04-16T09:52:05.270Z,30.50
2023-04-16T09:53:05.267Z,29.60
2023-04-16T09:54:05.263Z,32.20
2023-04-16T09:55:05.262Z,30.50
2023-04-16T09:56:05.420Z,30.30
2023-04-16T09:57:05.251Z,29.80
2023-04-16T09:58:05.274Z,31.10
2023-04-16T09:59:05.255Z,30.30
2023-04-16T10:00:05.245Z,30.20
2023-04-16T10:01:05.303Z,30.40
2023-04-16T10:02:14.506Z,30.50
2023-04-16T10:03:05.297Z,29.40
2023-04-16T10:04:05.308Z,29.50
2023-04-16T10:05:05.243Z,29.60
2023-04-16T10:06:05.206Z,29.30
2023-04-16T10:07:05.215Z,29.90
2023-04-16T10:08:05.237Z,31.00
2023-04-16T10:09:05.194Z,30.90
2023-04-16T10:10:05.193Z,31.20
2023-04-16T10:11:05.188Z,31.10
2023-04-16T10:12:05.182Z,32.10
2023-04-16T10:13:05.174Z,31.70
2023-04-16T10:14:05.173Z,31.70
2023-04-16T10:15:05.184Z,30.90
2023-04-16T10:16:05.172Z,30.80
2023-04-16T10:17:05.201Z,29.90
2023-04-16T10:18:05.250Z,30.30
2023-04-16T10:19:05.148Z,30.80
2023-04-16T10:20:05.145Z,30.80
2023-04-16T10:21:05.144Z,31.10
2023-04-16T10:22:05.159Z,31.00
2023-04-16T10:23:05.130Z,31.80
2023-04-16T10:24:05.128Z,30.90
2023-04-16T10:25:05.129Z,30.80
2023-04-16T10:26:05.118Z,30.70
2023-04-16T10:27:05.117Z,30.20
2023-04-16T10:28:05.120Z,29.90
2023-04-16T10:29:05.104Z,30.80
2023-04-16T10:30:05.097Z,31.80
2023-04-16T10:31:05.140Z,30.70
2023-04-16T10:32:05.091Z,31.20
2023-04-16T10:33:05.155Z,31.00
2023-04-16T10:34:05.098Z,29.40
2023-04-16T10:35:05.076Z,30.60
2023-04-16T10:36:07.731Z,30.60
2023-04-16T10:37:05.071Z,31.10
2023-04-16T10:38:05.065Z,30.80
2023-04-16T10:39:05.059Z,31.30
2023-04-16T10:40:05.048Z,29.40
2023-04-16T10:41:05.046Z,30.40
2023-04-16T10:42:05.041Z,30.20
2023-04-16T10:43:05.035Z,31.30
2023-04-16T10:44:05.033Z,31.40
2023-04-16T10:45:05.028Z,31.70
2023-04-16T10:46:05.035Z,31.80
2023-04-16T10:47:05.023Z,32.10
2023-04-16T10:48:05.015Z,33.00
2023-04-16T10:49:05.015Z,33.40
2023-04-16T10:50:05.028Z,32.90
2023-04-16T10:51:05.002Z,32.10
2023-04-16T10:52:05.011Z,31.90
2023-04-16T10:53:04.987Z,32.20
2023-04-16T10:54:04.987Z,32.00
2023-04-16T10:55:04.982Z,30.60
2023-04-16T10:56:04.985Z,30.30
2023-04-16T10:57:04.970Z,29.50
2023-04-16T10:58:04.972Z,30.90
2023-04-16T10:59:04.973Z,30.00
2023-04-16T11:00:05.009Z,30.70
2023-04-16T11:01:05.303Z,30.50
2023-04-16T11:02:04.979Z,30.00
2023-04-16T11:03:05.114Z,29.80
2023-04-16T11:04:05.093Z,28.90
2023-04-16T11:05:04.988Z,27.70
2023-04-16T11:06:04.963Z,26.60
2023-04-16T11:07:04.935Z,27.00
2023-04-16T11:08:04.930Z,27.90
2023-04-16T11:09:04.930Z,28.30
2023-04-16T11:10:04.916Z,27.50
2023-04-16T11:11:04.909Z,27.80
2023-04-16T11:12:04.910Z,27.90
2023-04-16T11:13:04.906Z,27.10
2023-04-16T11:14:04.901Z,27.00
2023-04-16T11:15:04.903Z,27.20
2023-04-16T11:16:04.942Z,27.70
2023-04-16T11:17:04.886Z,26.70
2023-04-16T11:18:04.891Z,24.50
2023-04-16T11:19:04.879Z,23.50
2023-04-16T11:20:04.878Z,24.50
2023-04-16T11:21:04.872Z,24.70
2023-04-16T11:22:04.897Z,24.80
2023-04-16T11:23:04.859Z,26.30
2023-04-16T11:24:04.857Z,25.70
2023-04-16T11:25:04.853Z,24.60
2023-04-16T11:26:04.846Z,26.50
2023-04-16T11:27:04.844Z,28.60
2023-04-16T11:28:04.840Z,28.90
2023-04-16T11:29:04.835Z,30.00
2023-04-16T11:30:04.831Z,29.10
2023-04-16T11:31:04.941Z,29.20
2023-04-16T11:32:04.830Z,29.40
2023-04-16T11:33:04.823Z,28.10
2023-04-16T11:34:04.817Z,30.00
2023-04-16T11:35:04.832Z,27.70
2023-04-16T11:36:04.810Z,28.30
2023-04-16T11:37:04.803Z,28.40
2023-04-16T11:38:04.829Z,29.00
2023-04-16T11:39:04.795Z,29.00
2023-04-16T11:40:04.848Z,28.10
2023-04-16T11:41:04.784Z,28.90
2023-04-16T11:42:04.816Z,29.00
2023-04-16T11:43:04.778Z,28.60
2023-04-16T11:44:04.776Z,28.70
2023-04-16T11:45:04.770Z,25.00
2023-04-16T11:46:12.817Z,26.60
2023-04-16T11:47:04.810Z,26.90
2023-04-16T11:48:04.789Z,25.00
2023-04-16T11:49:04.755Z,25.10
2023-04-16T11:50:04.753Z,23.80
2023-04-16T11:51:04.747Z,23.80
2023-04-16T11:52:04.741Z,24.30
2023-04-16T11:53:04.737Z,24.70
2023-04-16T11:54:04.760Z,24.50
2023-04-16T11:55:04.731Z,25.40
2023-04-16T11:56:04.731Z,24.30
2023-04-16T11:57:04.720Z,25.60
2023-04-16T11:58:04.720Z,24.80
2023-04-16T11:59:04.716Z,25.00
2023-04-16T12:00:05.614Z,26.40
2023-04-16T12:01:04.710Z,25.90
2023-04-16T12:02:04.732Z,25.10
2023-04-16T12:03:04.914Z,26.70
2023-04-16T12:04:04.932Z,25.70
2023-04-16T12:05:04.711Z,26.50
2023-04-16T12:06:04.694Z,26.60
2023-04-16T12:07:04.686Z,27.10
2023-04-16T12:08:04.679Z,26.80
2023-04-16T12:09:04.675Z,25.90
2023-04-16T12:10:04.713Z,24.40
2023-04-16T12:11:04.675Z,27.00
2023-04-16T12:12:04.664Z,26.40
2023-04-16T12:13:04.660Z,25.80
2023-04-16T12:14:04.657Z,26.30
2023-04-16T12:15:04.652Z,25.90
2023-04-16T12:16:04.649Z,26.20
2023-04-16T12:17:04.664Z,25.80
2023-04-16T12:18:04.704Z,24.30
2023-04-16T12:19:04.636Z,21.70
2023-04-16T12:20:04.656Z,22.70
2023-04-16T12:21:04.625Z,21.70
2023-04-16T12:22:04.626Z,22.10
2023-04-16T12:23:04.627Z,21.70
2023-04-16T12:24:04.626Z,22.40
2023-04-16T12:25:04.622Z,22.50
2023-04-16T12:26:04.630Z,23.00
2023-04-16T12:27:04.612Z,21.70
2023-04-16T12:28:04.619Z,22.30
2023-04-16T12:29:04.594Z,22.10
2023-04-16T12:30:04.605Z,21.20
2023-04-16T12:31:04.602Z,21.60
2023-04-16T12:32:04.606Z,21.90
2023-04-16T12:33:04.605Z,21.70
2023-04-16T12:34:04.584Z,22.50
2023-04-16T12:35:04.576Z,22.30
2023-04-16T12:36:04.582Z,23.10
2023-04-16T12:37:04.569Z,23.50
2023-04-16T12:38:04.563Z,21.80
2023-04-16T12:39:04.560Z,22.10
2023-04-16T12:40:04.558Z,22.30
2023-04-16T12:41:04.564Z,22.20
2023-04-16T12:42:04.566Z,22.90
2023-04-16T12:43:04.554Z,24.00
2023-04-16T12:44:04.537Z,22.20
2023-04-16T12:45:04.551Z,22.70
2023-04-16T12:46:04.705Z,22.10
2023-04-16T12:47:04.531Z,22.60
2023-04-16T12:48:04.569Z,22.70
2023-04-16T12:49:04.527Z,22.40
2023-04-16T12:50:04.522Z,22.40
2023-04-16T12:51:04.509Z,21.10
2023-04-16T12:52:04.510Z,21.50
2023-04-16T12:53:04.503Z,21.10